Terminal Aerodrome Forecast
Issued by NWS Jackson, MS

Home | Current Version | Previous Version | Text Only | Print | Product List | Glossary On
Versions: 1 2 3 4 5 6 7 8 9 10 11 12
000
FTUS44 KJAN 242320
TAFGLH
TAF
KGLH 242320Z 2500/2524 17021G27KT P6SM SKC
     FM250200 16018G30KT P6SM VCSH BKN025 OVC250
     FM250600 17019G33KT P6SM TSRA OVC025CB
     FM251000 18014G24KT P6SM VCTS BKN050CB OVC250
     FM251700 20015G27KT P6SM VCTS FEW090CB SCT250
     FM252100 23014G24KT P6SM VCTS FEW050CB FEW250=

USA.gov is the U.S. government's official web portal to all federal, state and local government web resources and services.